Rector, PA (15677)

12:33 AM EST on February 11, 2016 (GMT -0500)
Powdermill Nature Reserve | | Change Station
CLOSE
Current Station
Personal Weather Station
Location: Rector, PA
Elevation: 1312 ft
Nearby Weather Stations
Active Advisory: Winter Weather Advisory Active Notice: Public Information Statement

Elev 1312 ft 40.16 °N, 79.27 °W | Updated 3 seconds ago

Overcast
Overcast
15.9 °F
Feels Like 16 °F
N
1.0
Wind Variable Wind from WNW
Gusts 3.0 mph

Today
High -- | Low -- °F
--% Chance of Precip.
Yesterday
High -- | Low -- °F
Precip. -- in
Pressure 29.94 in
Visibility 10.0 miles
Clouds Overcast 2400 ft
Windchill 16 °F
Dew Point 10 °F
Humidity 78%
Rainfall 0.00 in
Snow Depth Not available.
7:15 AM 5:47 PM
Waxing Crescent, 9% visible
METAR KLBE 110515Z AUTO 23012G22KT 10SM -SN OVC024 M09/M13 A2994 RMK AO2
Pressure 29.94 in
Visibility 10.0 miles
Clouds Overcast 2400 ft
Windchill 16 °F
Dew Point 10 °F
Humidity 78%
Rainfall 0.00 in
Snow Depth Not available.
7:15 AM 5:47 PM
Waxing Crescent, 9% visible
METAR KLBE 110515Z AUTO 23012G22KT 10SM -SN OVC024 M09/M13 A2994 RMK AO2

10-Day Weather Forecast

Almanac

Astronomy

Feb. 11, 2016 Rise Set
Actual Time
Civil Twilight
Nautical Twilight
Astronomical Twilight
Moon
Length of Visible Light
Length of Day
Tomorrow will be .
, % of the Moon is Illuminated

Today's Extremes

State Highs State Lows

Community

WunderPhotos

Upload Photos

1,892,023 photos uploaded!

WunderBlog® & News

Nearby

Air Quality

  Air Quality AQ Index Pollutant
Not available.

Snow Depth

Station Depth Elevation

Earthquake Activity

City Distance Mag. Time & Date
Minimum magnitude displayed is 2.5.

Coastal Water Temperatures

Place Temperature

Stations

Nearby Weather Stations

Station Location Temp. Windchill Dew Point Humidity Wind Precip. Elev Updated Type
                   

Watches & Warnings

Winter Weather Advisory
Issued: 10:33 PM EST Feb. 10, 2016 – National Weather Service

... Winter Weather Advisory remains in effect until 7 PM EST
Thursday...

* additional snow accumulation... 3 to 5 inches.

* Snow ending... snow showers will gradually diminish Thursday.

* Impacts... hazardous travel conditions are expected due to snow.

* Wind chills... strong winds and cold temperatures will result
in wind chill values of 10 to 15 below zero Thursday morning.

Precautionary/preparedness actions...

A Winter Weather Advisory for snow means that periods of snow
will cause primarily travel difficulties. Be prepared for snow
covered roads and limited visibilities... and use caution while
driving.